createdAt,value
2022-11-18T00:01:00.052Z,99708.53
2022-11-18T00:03:41.239Z,99718.81
2022-11-18T00:06:16.026Z,99708.66
2022-11-18T00:08:48.275Z,99681.88
2022-11-18T00:14:39.205Z,99701.03
2022-11-18T00:17:09.911Z,99739.38
2022-11-18T00:19:43.127Z,99710.25
2022-11-18T00:22:16.489Z,99725.47
2022-11-18T00:24:48.645Z,99694.63
2022-11-18T00:27:29.919Z,99698.94
2022-11-18T00:30:04.671Z,99703.44
2022-11-18T00:32:43.497Z,99727.00
2022-11-18T00:35:25.183Z,99710.13
2022-11-18T00:37:57.933Z,99702.44
2022-11-18T00:40:35.367Z,99734.97
2022-11-18T00:43:06.791Z,99716.94
2022-11-18T00:45:54.153Z,99723.06
2022-11-18T00:48:28.338Z,99715.66
2022-11-18T00:51:03.301Z,99721.91
2022-11-18T00:53:58.594Z,99757.19
2022-11-18T00:56:33.000Z,99729.31
2022-11-18T00:59:11.227Z,99758.41
2022-11-18T01:01:46.665Z,99768.88
2022-11-18T01:04:25.994Z,99761.41
2022-11-18T01:07:02.523Z,99735.63
2022-11-18T01:09:41.780Z,99762.16
2022-11-18T01:12:30.494Z,99745.44
2022-11-18T01:15:01.991Z,99781.13
2022-11-18T01:17:35.758Z,99774.81
2022-11-18T01:20:07.932Z,99776.00
2022-11-18T01:22:38.411Z,99748.13
2022-11-18T01:25:11.061Z,99787.66
2022-11-18T01:27:49.148Z,99756.78
2022-11-18T01:30:21.150Z,99781.22
2022-11-18T01:32:53.666Z,99789.03
2022-11-18T01:35:24.681Z,99805.84
2022-11-18T01:38:10.904Z,99797.97
2022-11-18T01:40:41.275Z,99789.94
2022-11-18T01:43:19.485Z,99813.94
2022-11-18T01:45:56.537Z,99811.34
2022-11-18T01:48:39.614Z,99803.72
2022-11-18T01:51:18.334Z,99818.16
2022-11-18T01:53:56.283Z,99829.06
2022-11-18T01:56:29.978Z,99825.19
2022-11-18T01:59:01.584Z,99815.91
2022-11-18T02:01:43.263Z,99808.41
2022-11-18T02:04:15.104Z,99791.03
2022-11-18T02:06:54.624Z,99838.59
2022-11-18T02:09:30.178Z,99812.13
2022-11-18T02:12:07.929Z,99804.38
2022-11-18T02:14:43.658Z,99798.75
2022-11-18T02:17:22.039Z,99836.91
2022-11-18T02:20:25.191Z,99844.53
2022-11-18T02:23:28.719Z,99844.97
2022-11-18T02:26:48.838Z,99843.00
2022-11-18T02:30:34.804Z,99851.00
2022-11-18T02:43:28.535Z,99838.66
2022-11-18T02:46:24.137Z,99852.69
2022-11-18T02:49:09.049Z,99848.03
2022-11-18T02:51:56.290Z,99873.56
2022-11-18T02:54:43.630Z,99857.69
2022-11-18T02:57:56.690Z,99880.84
2022-11-18T03:00:50.739Z,99874.16
2022-11-18T03:03:44.763Z,99881.63
2022-11-18T03:06:30.414Z,99884.09
2022-11-18T03:09:09.179Z,99877.47
2022-11-18T03:11:53.888Z,99894.50
2022-11-18T03:14:27.084Z,99890.03
2022-11-18T03:17:01.907Z,99903.97
2022-11-18T03:20:14.481Z,99900.66
2022-11-18T03:23:24.509Z,99899.41
2022-11-18T03:39:05.674Z,99892.59
2022-11-18T03:41:38.716Z,99901.16
2022-11-18T03:44:09.871Z,99897.75
2022-11-18T03:46:48.363Z,99900.69
2022-11-18T03:49:20.106Z,99910.50
2022-11-18T03:52:05.664Z,99920.59
2022-11-18T03:54:36.119Z,99924.53
2022-11-18T03:57:12.040Z,99934.66
2022-11-18T03:59:42.868Z,99939.53
2022-11-18T04:02:19.920Z,99930.91
2022-11-18T04:04:51.785Z,99931.13
2022-11-18T04:10:20.129Z,99927.63
2022-11-18T04:12:53.260Z,99916.03
2022-11-18T04:15:25.972Z,99971.44
2022-11-18T04:18:37.077Z,99952.84
2022-11-18T04:21:24.077Z,99963.47
2022-11-18T04:28:12.030Z,99962.16
2022-11-18T04:30:44.440Z,99956.03
2022-11-18T04:33:20.625Z,99956.84
2022-11-18T04:35:52.446Z,99970.44
2022-11-18T04:38:22.215Z,99973.41
2022-11-18T04:40:52.884Z,99984.00
2022-11-18T04:43:26.608Z,99983.50
2022-11-18T04:45:58.069Z,99988.59
2022-11-18T04:48:27.929Z,99990.81
2022-11-18T04:51:00.742Z,99993.06
2022-11-18T04:53:37.110Z,99990.56
2022-11-18T04:56:09.956Z,99992.56
2022-11-18T04:58:47.573Z,100005.53
2022-11-18T05:01:19.402Z,100016.50
2022-11-18T05:03:55.678Z,99975.94
2022-11-18T05:06:27.888Z,100025.50
2022-11-18T05:08:57.705Z,99986.06
2022-11-18T05:11:44.235Z,99996.47
2022-11-18T05:14:22.250Z,99996.03
2022-11-18T05:16:54.463Z,100021.53
2022-11-18T05:22:20.824Z,99998.66
2022-11-18T05:24:59.693Z,100009.75
2022-11-18T05:27:33.139Z,100044.25
2022-11-18T05:30:05.423Z,100005.34
2022-11-18T05:32:36.140Z,100019.22
2022-11-18T05:35:11.277Z,100041.75
2022-11-18T05:37:43.941Z,100037.09
2022-11-18T05:40:29.159Z,100008.41
2022-11-18T05:43:26.811Z,100021.56
2022-11-18T05:46:01.573Z,100023.16
2022-11-18T05:48:38.197Z,100024.81
2022-11-18T05:51:09.573Z,100037.47
2022-11-18T05:53:40.747Z,100055.38
2022-11-18T05:56:17.417Z,100040.31
2022-11-18T05:58:49.715Z,100044.78
2022-11-18T06:01:44.069Z,100067.66
2022-11-18T06:04:18.902Z,100095.84
2022-11-18T06:06:48.504Z,100074.28
2022-11-18T06:09:18.303Z,100094.53
2022-11-18T06:11:51.417Z,100060.88
2022-11-18T06:14:29.885Z,100051.72
2022-11-18T06:17:06.646Z,100052.38
2022-11-18T06:19:49.931Z,100065.16
2022-11-18T06:22:26.772Z,100092.34
2022-11-18T06:24:57.940Z,100115.44
2022-11-18T06:27:35.262Z,100121.19
2022-11-18T06:30:11.166Z,100106.44
2022-11-18T06:32:46.778Z,100086.84
2022-11-18T06:35:16.505Z,100112.09
2022-11-18T06:37:46.860Z,100134.69
2022-11-18T06:40:20.195Z,100108.66
2022-11-18T06:43:15.029Z,100141.00
2022-11-18T06:46:09.483Z,100137.00
2022-11-18T06:48:48.784Z,100149.66
2022-11-18T06:51:21.022Z,100130.72
2022-11-18T06:53:55.655Z,100168.28
2022-11-18T06:56:25.595Z,100159.28
2022-11-18T06:58:59.678Z,100132.91
2022-11-18T07:01:33.278Z,100173.88
2022-11-18T07:04:17.468Z,100158.63
2022-11-18T07:06:52.003Z,100177.53
2022-11-18T07:09:26.782Z,100174.56
2022-11-18T07:12:01.957Z,100169.94
2022-11-18T07:14:42.423Z,100164.59
2022-11-18T07:17:13.044Z,100200.81
2022-11-18T07:19:49.307Z,100168.25
2022-11-18T07:22:20.599Z,100193.50
2022-11-18T07:24:52.457Z,100214.41
2022-11-18T07:27:35.146Z,100206.59
2022-11-18T07:30:10.335Z,100176.22
2022-11-18T07:32:41.942Z,100223.72
2022-11-18T07:35:35.967Z,100214.94
2022-11-18T07:38:08.529Z,100198.16
2022-11-18T07:40:39.659Z,100219.06
2022-11-18T07:46:21.823Z,100240.16
2022-11-18T07:49:09.904Z,100222.38
2022-11-18T07:51:44.961Z,100231.03
2022-11-18T07:54:32.572Z,100258.28
2022-11-18T07:57:05.523Z,100256.94
2022-11-18T07:59:39.465Z,100272.06
2022-11-18T08:02:09.191Z,100247.81
2022-11-18T08:04:40.827Z,100266.25
2022-11-18T08:08:15.053Z,100273.25
2022-11-18T08:10:54.652Z,100276.56
2022-11-18T08:13:29.877Z,100281.22
2022-11-18T08:16:05.814Z,100271.25
2022-11-18T08:18:45.897Z,100245.00
2022-11-18T08:21:21.438Z,100257.28
2022-11-18T08:24:57.754Z,100296.31
2022-11-18T08:27:35.833Z,100273.25
2022-11-18T08:34:47.258Z,100319.44
2022-11-18T08:37:24.291Z,100318.75
2022-11-18T08:39:55.491Z,100314.44
2022-11-18T08:42:42.640Z,100310.47
2022-11-18T08:45:27.047Z,100308.13
2022-11-18T08:48:23.902Z,100308.78
2022-11-18T08:50:59.614Z,100309.09
2022-11-18T08:53:29.160Z,100323.41
2022-11-18T08:59:50.288Z,100354.78
2022-11-18T09:02:29.570Z,100355.97
2022-11-18T09:05:23.904Z,100362.28
2022-11-18T09:08:21.084Z,100353.97
2022-11-18T09:11:00.519Z,100370.91
2022-11-18T09:14:20.529Z,100375.59
2022-11-18T09:16:44.557Z,100358.63
2022-11-18T09:19:45.524Z,100363.28
2022-11-18T09:22:15.479Z,100365.94
2022-11-18T09:25:11.009Z,100383.75
2022-11-18T09:27:53.693Z,100378.59
2022-11-18T09:30:52.106Z,100392.56
2022-11-18T09:33:32.365Z,100367.94
2022-11-18T09:36:09.917Z,100377.94
2022-11-18T09:38:47.428Z,100368.28
2022-11-18T09:48:51.038Z,100402.81
2022-11-18T09:51:26.493Z,100392.03
2022-11-18T09:54:11.682Z,100436.91
2022-11-18T09:57:00.452Z,100395.34
2022-11-18T10:00:10.490Z,100436.91
2022-11-18T10:03:18.851Z,100423.41
2022-11-18T10:06:08.982Z,100455.84
2022-11-18T10:08:46.235Z,100453.69
2022-11-18T10:11:19.989Z,100452.22
2022-11-18T10:14:13.474Z,100457.38
2022-11-18T10:16:46.106Z,100461.03
2022-11-18T10:19:25.457Z,100466.03
2022-11-18T10:23:30.956Z,100474.34
2022-11-18T10:26:07.247Z,100439.72
2022-11-18T10:29:49.367Z,100437.28
2022-11-18T10:33:45.904Z,100479.69
2022-11-18T10:37:17.661Z,100491.69
2022-11-18T10:44:05.814Z,100496.00
2022-11-18T10:47:00.740Z,100491.81
2022-11-18T10:49:47.176Z,100492.00
2022-11-18T10:52:36.026Z,100502.97
2022-11-18T10:55:50.461Z,100507.97
2022-11-18T10:58:56.045Z,100512.28
2022-11-18T11:08:04.584Z,100496.97
2022-11-18T11:11:23.517Z,100517.38
2022-11-18T11:13:59.004Z,100509.63
2022-11-18T11:16:53.700Z,100516.78
2022-11-18T11:19:33.677Z,100522.25
2022-11-18T11:22:18.553Z,100530.25
2022-11-18T11:31:09.550Z,100544.31
2022-11-18T11:33:43.755Z,100547.34
2022-11-18T11:36:31.851Z,100548.78
2022-11-18T11:39:28.859Z,100531.78
2022-11-18T11:42:14.849Z,100555.72
2022-11-18T11:45:35.120Z,100545.56
2022-11-18T11:48:50.135Z,100553.50
2022-11-18T11:54:57.083Z,100555.47
2022-11-18T11:57:57.141Z,100556.16
2022-11-18T12:01:29.414Z,100560.78
2022-11-18T12:05:09.750Z,100557.44
2022-11-18T12:08:28.958Z,100541.00
2022-11-18T12:14:26.421Z,100556.09
2022-11-18T12:17:27.308Z,100560.13
2022-11-18T12:20:47.134Z,100567.31
2022-11-18T12:23:52.269Z,100553.81
2022-11-18T12:26:53.274Z,100567.47
2022-11-18T12:40:07.929Z,100582.47
2022-11-18T12:46:06.151Z,100590.16
2022-11-18T12:52:12.520Z,100595.84
2022-11-18T12:55:21.739Z,100590.84
2022-11-18T12:58:31.941Z,100587.50
2022-11-18T13:01:19.735Z,100589.69
2022-11-18T13:03:50.192Z,100591.50
2022-11-18T13:06:39.114Z,100599.47
2022-11-18T13:09:47.990Z,100590.81
2022-11-18T13:12:58.345Z,100598.75
2022-11-18T13:19:08.880Z,100593.72
2022-11-18T13:22:02.301Z,100588.41
2022-11-18T13:25:00.544Z,100594.41
2022-11-18T13:28:24.838Z,100610.59
2022-11-18T13:31:26.014Z,100619.47
2022-11-18T13:34:31.723Z,100622.44
2022-11-18T13:37:18.660Z,100618.47
2022-11-18T13:43:24.700Z,100619.63
2022-11-18T13:46:02.066Z,100621.13
2022-11-18T13:48:45.988Z,100629.75
2022-11-18T14:01:11.234Z,100638.81
2022-11-18T14:04:40.280Z,100641.63
2022-11-18T14:07:29.507Z,100618.84
2022-11-18T14:10:07.941Z,100651.66
2022-11-18T14:18:41.945Z,100658.13
2022-11-18T14:21:26.193Z,100626.16
2022-11-18T14:24:09.140Z,100642.84
2022-11-18T14:26:44.830Z,100623.97
2022-11-18T14:29:37.539Z,100649.13
2022-11-18T14:32:29.330Z,100660.59
2022-11-18T14:35:11.555Z,100651.44
2022-11-18T14:37:46.643Z,100668.06
2022-11-18T14:40:44.168Z,100652.06
2022-11-18T14:43:21.353Z,100662.75
2022-11-18T14:45:57.066Z,100655.09
2022-11-18T14:51:28.253Z,100673.09
2022-11-18T14:53:57.223Z,100676.75
2022-11-18T14:56:35.154Z,100686.09
2022-11-18T14:59:18.041Z,100685.25
2022-11-18T15:01:53.239Z,100688.56
2022-11-18T15:04:24.458Z,100697.75
2022-11-18T15:09:44.932Z,100710.75
2022-11-18T15:12:43.233Z,100696.78
2022-11-18T15:15:36.054Z,100706.28
2022-11-18T15:18:24.633Z,100716.78
2022-11-18T15:21:54.486Z,100717.09
2022-11-18T15:25:09.969Z,100724.75
2022-11-18T15:31:12.329Z,100729.06
2022-11-18T15:37:28.251Z,100734.06
2022-11-18T15:43:22.105Z,100742.97
2022-11-18T15:45:59.911Z,100733.28
2022-11-18T15:51:31.949Z,100748.09
2022-11-18T15:54:09.476Z,100743.28
2022-11-18T15:56:43.798Z,100742.06
2022-11-18T15:59:16.535Z,100755.22
2022-11-18T16:01:56.855Z,100751.53
2022-11-18T16:04:36.018Z,100762.19
2022-11-18T16:07:09.404Z,100759.31
2022-11-18T16:10:03.056Z,100755.44
2022-11-18T16:12:49.344Z,100778.91
2022-11-18T16:16:04.656Z,100772.25
2022-11-18T16:18:41.081Z,100785.66
2022-11-18T16:24:17.636Z,100785.78
2022-11-18T16:27:04.672Z,100797.72
2022-11-18T16:29:54.913Z,100802.53
2022-11-18T16:32:45.993Z,100804.78
2022-11-18T16:35:28.191Z,100795.25
2022-11-18T16:37:59.643Z,100809.25
2022-11-18T16:40:32.186Z,100810.91
2022-11-18T16:43:04.386Z,100814.72
2022-11-18T16:45:38.912Z,100817.53
2022-11-18T16:48:14.489Z,100816.47
2022-11-18T16:51:14.772Z,100819.59
2022-11-18T16:53:59.796Z,100831.88
2022-11-18T16:59:46.301Z,100830.16
2022-11-18T17:05:16.524Z,100853.69
2022-11-18T17:07:55.444Z,100829.69
2022-11-18T17:10:38.085Z,100846.75
2022-11-18T17:13:12.191Z,100840.47
2022-11-18T17:16:09.651Z,100853.03
2022-11-18T17:18:46.648Z,100854.72
2022-11-18T17:21:25.666Z,100856.78
2022-11-18T17:23:56.957Z,100862.94
2022-11-18T17:26:33.438Z,100854.88
2022-11-18T17:29:03.709Z,100868.25
2022-11-18T17:31:32.445Z,100870.22
2022-11-18T17:34:04.717Z,100870.84
2022-11-18T17:39:42.069Z,100871.06
2022-11-18T17:42:19.364Z,100896.06
2022-11-18T17:44:48.977Z,100906.69
2022-11-18T17:47:19.603Z,100900.69
2022-11-18T17:49:49.397Z,100905.63
2022-11-18T17:52:25.798Z,100909.25
2022-11-18T17:54:55.613Z,100900.88
2022-11-18T17:57:25.699Z,100913.78
2022-11-18T17:59:53.979Z,100922.72
2022-11-18T18:02:23.774Z,100914.75
2022-11-18T18:04:51.744Z,100885.28
2022-11-18T18:07:22.181Z,100920.66
2022-11-18T18:09:53.015Z,100919.31
2022-11-18T18:12:39.807Z,100934.25
2022-11-18T18:15:16.945Z,100933.56
2022-11-18T18:17:51.822Z,100935.00
2022-11-18T18:20:22.758Z,100940.97
2022-11-18T18:22:59.841Z,100949.13
2022-11-18T18:25:31.804Z,100943.38
2022-11-18T18:28:02.658Z,100955.81
2022-11-18T18:30:32.952Z,100955.28
2022-11-18T18:33:03.746Z,100971.22
2022-11-18T18:35:33.576Z,100975.84
2022-11-18T18:38:06.177Z,100981.28
2022-11-18T18:40:35.937Z,100975.13
2022-11-18T18:43:04.782Z,100985.75
2022-11-18T18:46:02.236Z,100973.50
2022-11-18T18:48:31.658Z,100986.06
2022-11-18T18:51:07.030Z,100986.06
2022-11-18T18:53:39.071Z,100986.06
2022-11-18T18:56:11.106Z,100996.00
2022-11-18T18:58:39.891Z,100996.13
2022-11-18T19:01:12.893Z,100984.59
2022-11-18T19:03:46.502Z,101000.59
2022-11-18T19:06:50.173Z,101009.56
2022-11-18T19:09:14.510Z,101021.84
2022-11-18T19:12:01.362Z,100999.38
2022-11-18T19:14:30.024Z,101021.88
2022-11-18T19:17:11.238Z,101027.19
2022-11-18T19:20:05.555Z,101026.63
2022-11-18T19:22:37.341Z,101034.72
2022-11-18T19:25:14.881Z,101041.44
2022-11-18T19:27:44.862Z,101025.25
2022-11-18T19:30:14.978Z,101040.88
2022-11-18T19:32:51.962Z,101031.97
2022-11-18T19:35:24.641Z,101037.41
2022-11-18T19:37:57.754Z,101048.16
2022-11-18T19:40:34.561Z,101046.50
2022-11-18T19:43:03.524Z,101062.13
2022-11-18T19:45:32.556Z,101061.97
2022-11-18T19:48:02.775Z,101067.88
2022-11-18T19:50:33.151Z,101043.69
2022-11-18T19:53:25.109Z,101070.53
2022-11-18T19:55:58.029Z,101075.81
2022-11-18T19:58:27.713Z,101079.72
2022-11-18T20:00:59.702Z,101080.28
2022-11-18T20:03:32.534Z,101085.59
2022-11-18T20:06:03.398Z,101082.25
2022-11-18T20:08:36.025Z,101091.47
2022-11-18T20:11:09.882Z,101087.00
2022-11-18T20:13:38.447Z,101090.63
2022-11-18T20:16:10.043Z,101092.31
2022-11-18T20:18:40.351Z,101105.31
2022-11-18T20:21:10.212Z,101115.22
2022-11-18T20:23:41.887Z,101117.16
2022-11-18T20:26:17.905Z,101118.44
2022-11-18T20:28:49.590Z,101129.19
2022-11-18T20:31:23.695Z,101123.59
2022-11-18T20:34:04.765Z,101121.50
2022-11-18T20:36:58.500Z,101132.47
2022-11-18T20:39:28.829Z,101129.94
2022-11-18T20:42:16.613Z,101135.81
2022-11-18T20:44:45.599Z,101139.13
2022-11-18T20:47:15.499Z,101138.00
2022-11-18T20:49:45.953Z,101143.31
2022-11-18T20:52:19.374Z,101153.47
2022-11-18T20:54:51.025Z,101151.09
2022-11-18T20:57:27.389Z,101131.50
2022-11-18T20:59:57.846Z,101158.84
2022-11-18T21:02:27.458Z,101158.84
2022-11-18T21:05:00.482Z,101169.22
2022-11-18T21:07:35.445Z,101163.19
2022-11-18T21:10:07.610Z,101171.88
2022-11-18T21:12:57.467Z,101170.19
2022-11-18T21:15:30.837Z,101171.41
2022-11-18T21:18:00.034Z,101169.59
2022-11-18T21:20:53.459Z,101173.63
2022-11-18T21:23:26.250Z,101186.44
2022-11-18T21:26:01.217Z,101186.44
2022-11-18T21:28:49.550Z,101186.97
2022-11-18T21:31:23.399Z,101196.44
2022-11-18T21:33:59.946Z,101194.75
2022-11-18T21:36:31.294Z,101191.56
2022-11-18T21:39:06.102Z,101168.47
2022-11-18T21:41:36.457Z,101188.13
2022-11-18T21:44:09.795Z,101204.75
2022-11-18T21:46:43.032Z,101202.72
2022-11-18T21:49:19.062Z,101195.13
2022-11-18T21:51:54.337Z,101207.41
2022-11-18T21:54:26.554Z,101201.56
2022-11-18T21:56:58.625Z,101202.34
2022-11-18T21:59:30.396Z,101214.34
2022-11-18T22:02:02.037Z,101221.44
2022-11-18T22:04:52.278Z,101219.09
2022-11-18T22:07:23.709Z,101218.78
2022-11-18T22:09:58.710Z,101225.16
2022-11-18T22:12:31.285Z,101221.94
2022-11-18T22:15:06.287Z,101224.00
2022-11-18T22:17:38.537Z,101210.84
2022-11-18T22:20:13.932Z,101229.22
2022-11-18T22:22:42.583Z,101230.91
2022-11-18T22:25:20.534Z,101237.66
2022-11-18T22:27:50.100Z,101230.38
2022-11-18T22:30:21.442Z,101238.94
2022-11-18T22:32:53.369Z,101236.53
2022-11-18T22:35:21.947Z,101249.13
2022-11-18T22:37:50.413Z,101237.25
2022-11-18T22:40:22.201Z,101260.06
2022-11-18T22:42:49.366Z,101253.06
2022-11-18T22:45:20.218Z,101255.59
2022-11-18T22:47:52.504Z,101257.03
2022-11-18T22:56:50.741Z,101238.53
2022-11-18T22:59:19.694Z,101268.06
2022-11-18T23:01:52.484Z,101262.97
2022-11-18T23:04:25.926Z,101268.28
2022-11-18T23:06:56.736Z,101279.59
2022-11-18T23:09:26.945Z,101275.38
2022-11-18T23:12:13.926Z,101281.22
2022-11-18T23:14:43.604Z,101279.97
2022-11-18T23:17:17.410Z,101284.81
2022-11-18T23:19:47.778Z,101286.09
2022-11-18T23:22:22.612Z,101286.94
2022-11-18T23:24:54.741Z,101284.28
2022-11-18T23:27:23.997Z,101302.66
2022-11-18T23:29:52.771Z,101293.81
2022-11-18T23:32:36.200Z,101299.44
2022-11-18T23:35:06.583Z,101302.81
2022-11-18T23:37:36.164Z,101314.69
2022-11-18T23:40:06.502Z,101321.09
2022-11-18T23:42:45.063Z,101321.50
2022-11-18T23:45:17.921Z,101319.91
2022-11-18T23:47:48.800Z,101323.53
2022-11-18T23:50:18.660Z,101322.25
2022-11-18T23:52:50.663Z,101329.59
2022-11-18T23:55:19.709Z,101334.34
2022-11-18T23:57:48.153Z,101332.34
